Time;durP1;ratioP1;P1;durP2;ratioP2;P2;SDS_P1;SDS_P2;PMS_P1;PMS_P2;Temp;Humidity;BMP_temperature;BMP_pressure;BME280_temperature;BME280_humidity;BME280_pressure;Samples;Min_cycle;Max_cycle;Signal;HPM_P1;HPM_P2
2021/11/26 00:03:54;;;;;;;25.10;19.17;;;;;;;4.88;66.68;99383.25;10271217;28;20047;-64
2021/11/26 00:08:56;;;;;;;23.75;19.15;;;;;;;4.95;66.63;99363.41;10270601;28;20049;-63
2021/11/26 00:19:08;;;;;;;23.48;18.17;;;;;;;5.06;66.15;99359.13;10310615;28;20134;-65
2021/11/26 00:24:13;;;;;;;23.15;18.85;;;;;;;4.98;66.07;99346.50;10311271;28;20152;-63
2021/11/26 00:29:14;;;;;;;22.03;17.93;;;;;;;5.04;66.39;99345.22;10310464;28;20526;-63
2021/11/26 00:34:16;;;;;;;20.55;17.75;;;;;;;4.77;66.54;99322.50;10309604;28;20179;-64
2021/11/26 00:39:18;;;;;;;23.10;18.33;;;;;;;4.72;67.18;99319.34;10310177;28;20424;-64
2021/11/26 00:44:20;;;;;;;23.45;19.30;;;;;;;4.76;67.39;99319.03;10309203;28;20681;-63
2021/11/26 00:49:21;;;;;;;22.02;19.23;;;;;;;4.70;67.66;99310.69;10307941;28;20102;-65
2021/11/26 00:54:22;;;;;;;25.02;20.98;;;;;;;4.55;67.77;99308.22;10303216;28;20053;-63
2021/11/26 00:59:24;;;;;;;26.10;20.48;;;;;;;4.24;68.71;99294.53;10308036;28;20126;-64
2021/11/26 01:04:25;;;;;;;23.40;18.88;;;;;;;4.20;69.32;99295.72;10309175;28;20046;-63
2021/11/26 01:09:27;;;;;;;25.83;20.27;;;;;;;4.09;69.54;99290.34;10306653;28;20039;-65
2021/11/26 01:14:29;;;;;;;24.15;19.42;;;;;;;4.05;69.68;99275.69;10308663;28;20170;-64
2021/11/26 01:19:30;;;;;;;28.40;21.00;;;;;;;3.87;70.65;99270.75;10310885;28;20046;-63
2021/11/26 01:24:32;;;;;;;25.00;20.08;;;;;;;3.81;70.91;99272.94;10311107;28;20046;-65
2021/11/26 01:29:37;;;;;;;27.27;20.25;;;;;;;3.81;70.98;99265.06;10310041;28;20134;-63
2021/11/26 01:34:38;;;;;;;25.27;18.95;;;;;;;3.81;70.45;99260.63;10310941;28;20137;-64
2021/11/26 01:39:39;;;;;;;25.00;19.25;;;;;;;3.64;70.82;99243.34;10306751;28;20046;-63
2021/11/26 01:44:41;;;;;;;26.20;19.35;;;;;;;3.57;71.23;99238.63;10308461;28;20054;-64
2021/11/26 01:49:42;;;;;;;26.20;20.52;;;;;;;3.62;71.55;99234.72;10306403;28;20064;-64
2021/11/26 01:54:44;;;;;;;25.98;20.38;;;;;;;3.52;71.87;99226.59;10306133;28;20603;-63
2021/11/26 01:59:50;;;;;;;26.70;19.92;;;;;;;3.49;72.06;99234.72;10304994;28;20076;-63
2021/11/26 02:04:52;;;;;;;27.85;20.80;;;;;;;3.53;72.06;99230.09;10306177;28;20125;-64
2021/11/26 02:09:53;;;;;;;27.65;20.88;;;;;;;3.52;72.26;99221.34;10307329;28;20072;-64
2021/11/26 02:14:57;;;;;;;26.20;20.33;;;;;;;3.59;71.77;99218.28;10307498;28;20534;-64
2021/11/26 02:19:59;;;;;;;25.42;20.63;;;;;;;3.62;71.53;99207.56;10305746;28;20184;-64
2021/11/26 02:25:00;;;;;;;28.50;21.50;;;;;;;3.60;71.77;99215.56;10305811;28;20116;-64
2021/11/26 02:30:13;;;;;;;26.75;20.77;;;;;;;3.64;71.73;99216.19;10307331;28;20064;-64
2021/11/26 02:35:14;;;;;;;27.52;21.70;;;;;;;3.79;71.56;99194.09;10306412;28;20046;-64
2021/11/26 02:40:18;;;;;;;25.52;19.90;;;;;;;3.96;71.04;99190.25;10306524;28;20046;-65
2021/11/26 02:45:21;;;;;;;29.42;21.40;;;;;;;4.08;70.48;99183.28;10306613;28;20129;-64
2021/11/26 02:50:25;;;;;;;25.70;20.35;;;;;;;4.02;70.17;99186.38;10305531;28;20725;-63
2021/11/26 02:55:29;;;;;;;27.58;20.83;;;;;;;4.08;70.19;99178.03;10305819;28;20052;-64
2021/11/26 03:00:31;;;;;;;25.90;20.10;;;;;;;4.10;70.30;99170.88;10303745;28;20049;-64
2021/11/26 03:05:33;;;;;;;24.75;19.83;;;;;;;4.05;70.44;99162.44;10305557;28;20062;-64
2021/11/26 03:10:35;;;;;;;27.23;20.30;;;;;;;4.07;70.85;99155.31;10303472;28;20057;-64
2021/11/26 03:15:38;;;;;;;25.92;20.23;;;;;;;4.19;70.34;99133.34;10336469;23;20042;-62
2021/11/26 03:20:40;;;;;;;27.02;21.40;;;;;;;3.99;70.73;99100.50;10338847;28;20154;-64
2021/11/26 03:25:41;;;;;;;27.98;22.58;;;;;;;3.95;70.79;99092.94;10352714;28;20122;-62
2021/11/26 03:30:44;;;;;;;29.50;21.67;;;;;;;4.01;70.55;99100.44;10347072;28;20104;-63
2021/11/26 03:35:45;;;;;;;30.05;22.63;;;;;;;3.92;70.79;99090.53;10342090;28;20504;-63
2021/11/26 03:40:47;;;;;;;29.10;21.83;;;;;;;3.83;71.14;99099.97;10349520;28;20061;-63
2021/11/26 03:45:48;;;;;;;29.98;21.67;;;;;;;3.81;71.14;99107.09;10342299;28;20122;-62
2021/11/26 03:50:50;;;;;;;30.23;21.77;;;;;;;3.69;71.88;99100.91;10360884;28;20049;-62
2021/11/26 03:55:51;;;;;;;30.58;22.95;;;;;;;3.69;71.61;99095.66;10307720;28;20069;-62
2021/11/26 04:00:53;;;;;;;26.95;19.95;;;;;;;3.55;71.93;99080.84;10308829;28;20046;-63
2021/11/26 04:05:54;;;;;;;28.02;22.75;;;;;;;3.46;71.92;99071.78;10306226;28;20066;-62
2021/11/26 04:10:56;;;;;;;27.40;22.80;;;;;;;3.54;72.32;99074.75;10301356;28;20064;-62
2021/11/26 04:16:02;;;;;;;27.15;21.13;;;;;;;3.28;73.09;99068.66;10296939;28;20099;-63
2021/11/26 04:21:04;;;;;;;28.70;21.70;;;;;;;3.38;73.03;99074.13;10301815;28;20416;-63
2021/11/26 04:26:05;;;;;;;27.40;21.75;;;;;;;3.51;72.87;99063.56;10294607;28;20051;-62
2021/11/26 04:31:07;;;;;;;27.05;21.70;;;;;;;3.43;72.72;99050.97;10301923;28;20054;-63
2021/11/26 04:36:08;;;;;;;27.65;20.75;;;;;;;3.61;72.43;99048.81;10292391;28;20695;-63
2021/11/26 04:41:10;;;;;;;30.30;22.38;;;;;;;3.50;72.90;99044.31;10299539;28;20069;-63
2021/11/26 04:46:11;;;;;;;28.65;21.42;;;;;;;3.45;73.54;99021.91;10292479;28;20061;-63
2021/11/26 04:51:12;;;;;;;29.30;21.85;;;;;;;3.43;73.46;99019.38;10297430;28;20046;-63
2021/11/26 04:56:14;;;;;;;26.55;20.90;;;;;;;3.58;73.38;99033.25;10297982;28;20062;-63
2021/11/26 05:01:15;;;;;;;29.65;21.92;;;;;;;3.39;73.43;99017.91;10301783;28;20125;-63
2021/11/26 05:06:18;;;;;;;25.95;21.23;;;;;;;3.54;73.35;99011.59;10292132;28;20150;-63
2021/11/26 05:11:19;;;;;;;29.23;22.35;;;;;;;3.61;72.99;99008.50;10297547;28;20066;-63
2021/11/26 05:16:21;;;;;;;27.33;21.20;;;;;;;3.56;73.08;99005.34;10323679;28;20057;-63
2021/11/26 05:21:22;;;;;;;25.60;21.33;;;;;;;3.51;73.33;98996.03;10295453;28;20051;-62
2021/11/26 05:26:24;;;;;;;27.95;21.17;;;;;;;3.52;73.06;99008.22;10295288;28;20042;-63
2021/11/26 05:31:25;;;;;;;27.73;21.95;;;;;;;3.52;73.00;98992.41;10291836;28;20051;-63
2021/11/26 05:36:26;;;;;;;28.63;21.83;;;;;;;3.74;72.53;98984.78;10295199;28;20373;-62
2021/11/26 05:41:28;;;;;;;30.35;22.65;;;;;;;3.33;72.41;98945.56;10296676;28;20233;-63
2021/11/26 05:46:29;;;;;;;33.42;24.38;;;;;;;3.55;72.96;98975.59;10291301;28;20134;-63
2021/11/26 05:51:31;;;;;;;32.03;23.40;;;;;;;3.46;72.62;98970.97;10292718;28;21566;-63
2021/11/26 05:56:32;;;;;;;28.83;22.20;;;;;;;3.27;73.33;98955.66;10294793;28;20138;-62
2021/11/26 06:01:34;;;;;;;26.02;21.65;;;;;;;3.39;73.39;98964.47;10300016;28;20416;-63
2021/11/26 06:06:35;;;;;;;30.92;22.90;;;;;;;3.33;72.80;98937.66;10299270;28;20061;-62
2021/11/26 06:11:36;;;;;;;31.05;23.63;;;;;;;3.47;73.15;98956.88;10297190;28;20050;-63
2021/11/26 06:16:38;;;;;;;28.73;22.27;;;;;;;3.56;72.54;98958.84;10311672;28;20054;-64
2021/11/26 06:21:40;;;;;;;28.90;22.13;;;;;;;3.38;72.86;98916.28;10295088;28;20061;-63
2021/11/26 06:26:41;;;;;;;29.45;21.48;;;;;;;3.61;72.56;98933.03;10301376;28;20831;-63
2021/11/26 06:31:43;;;;;;;27.60;21.60;;;;;;;3.70;71.99;98921.00;10299177;28;20077;-64
2021/11/26 06:36:44;;;;;;;30.02;22.63;;;;;;;3.39;72.70;98896.91;10301778;28;20138;-64
2021/11/26 06:41:46;;;;;;;27.35;21.23;;;;;;;3.43;72.74;98898.38;10292592;28;20054;-64
2021/11/26 06:46:47;;;;;;;31.08;21.70;;;;;;;3.45;72.81;98880.72;10282896;28;20428;-64
2021/11/26 06:51:48;;;;;;;31.50;23.10;;;;;;;3.52;72.70;98892.44;10293055;28;20050;-63
2021/11/26 06:56:50;;;;;;;28.85;22.63;;;;;;;3.38;73.74;98884.72;10298708;28;20080;-63
2021/11/26 07:01:51;;;;;;;31.17;22.50;;;;;;;3.07;72.62;98818.56;10305922;28;20097;-63
2021/11/26 07:06:53;;;;;;;32.33;22.33;;;;;;;3.60;72.93;98848.94;10307752;28;20054;-63
2021/11/26 07:11:54;;;;;;;27.63;20.88;;;;;;;3.66;72.67;98862.50;10307007;28;20081;-63
2021/11/26 07:17:14;;;;;;;31.60;24.02;;;;;;;3.57;72.50;98850.00;10310528;28;20042;-63
2021/11/26 07:22:17;;;;;;;29.20;22.38;;;;;;;3.50;72.79;98852.25;10309670;28;20046;-66
2021/11/26 07:27:19;;;;;;;28.60;22.20;;;;;;;3.57;72.53;98849.16;10316288;28;20077;-66
2021/11/26 07:32:21;;;;;;;27.85;22.30;;;;;;;3.58;72.77;98829.81;10304878;28;20131;-64
2021/11/26 07:37:25;;;;;;;28.27;21.60;;;;;;;3.60;72.19;98822.63;10343688;28;20045;-62
2021/11/26 07:42:26;;;;;;;29.60;22.00;;;;;;;3.71;72.39;98843.72;10307146;28;20106;-62
2021/11/26 07:47:28;;;;;;;28.70;22.42;;;;;;;3.70;72.32;98837.59;10310966;28;20057;-62
2021/11/26 07:52:29;;;;;;;25.73;19.58;;;;;;;3.72;72.26;98821.69;10312060;28;20263;-61
2021/11/26 07:57:32;;;;;;;27.33;21.00;;;;;;;3.87;71.95;98823.19;10311209;28;20057;-62
2021/11/26 08:02:34;;;;;;;25.75;21.38;;;;;;;4.03;71.24;98801.78;10312538;28;20124;-63
2021/11/26 08:07:36;;;;;;;26.00;20.42;;;;;;;4.15;70.77;98804.44;10316376;28;20060;-63
2021/11/26 08:12:39;;;;;;;25.45;20.23;;;;;;;4.12;70.77;98789.72;10317104;28;20049;-63
2021/11/26 08:17:41;;;;;;;29.20;23.00;;;;;;;3.98;71.33;98790.78;10310209;28;20058;-63
2021/11/26 08:22:42;;;;;;;24.25;20.05;;;;;;;3.96;71.31;98803.22;10315554;28;20060;-63
2021/11/26 08:27:44;;;;;;;28.67;22.17;;;;;;;3.77;71.81;98785.38;10296874;28;20054;-64
2021/11/26 08:32:46;;;;;;;24.30;19.90;;;;;;;4.00;72.03;98769.59;10304370;28;20050;-62
2021/11/26 08:37:48;;;;;;;29.92;21.83;;;;;;;4.15;71.06;98763.13;10298062;28;20492;-62
2021/11/26 08:42:50;;;;;;;25.88;21.30;;;;;;;4.04;71.06;98745.53;10296810;28;20058;-62
2021/11/26 08:47:51;;;;;;;28.83;20.30;;;;;;;4.18;70.67;98726.03;10295360;28;20050;-62
2021/11/26 08:52:53;;;;;;;26.20;20.52;;;;;;;4.36;70.32;98734.28;10296217;28;20065;-63
2021/11/26 08:57:55;;;;;;;26.80;19.85;;;;;;;4.23;69.90;98707.22;10292431;28;20050;-64
2021/11/26 09:02:59;;;;;;;26.63;20.02;;;;;;;4.63;69.78;98719.03;10292866;28;20141;-63
2021/11/26 09:08:02;;;;;;;28.50;21.37;;;;;;;5.01;68.46;98723.00;10294938;28;20048;-63
2021/11/26 09:13:05;;;;;;;26.42;19.40;;;;;;;4.99;67.92;98706.47;10295276;28;20488;-63
2021/11/26 09:18:08;;;;;;;23.65;19.33;;;;;;;5.03;67.92;98711.38;10294793;28;20054;-64
2021/11/26 09:23:11;;;;;;;23.85;18.73;;;;;;;4.75;68.62;98702.22;10290689;28;20050;-65
2021/11/26 09:28:13;;;;;;;24.63;18.98;;;;;;;4.81;68.92;98682.44;10290975;28;20476;-63
2021/11/26 09:33:16;;;;;;;25.60;19.90;;;;;;;4.83;68.41;98665.50;10293698;28;20061;-64
2021/11/26 09:38:18;;;;;;;23.48;19.17;;;;;;;4.76;68.93;98677.56;10293479;28;20431;-63
2021/11/26 09:43:19;;;;;;;23.88;20.08;;;;;;;4.76;69.05;98680.19;10292817;28;20055;-63
2021/11/26 09:48:21;;;;;;;27.98;19.30;;;;;;;4.78;69.39;98659.81;10293127;28;20709;-62
2021/11/26 09:53:26;;;;;;;25.08;19.30;;;;;;;5.05;68.36;98655.84;10293322;28;20157;-63
2021/11/26 09:58:29;;;;;;;23.83;18.73;;;;;;;4.77;68.52;98613.31;10293062;28;20076;-63
2021/11/26 10:03:44;;;;;;;26.23;19.17;;;;;;;5.04;68.43;98643.63;10289899;28;20128;-63
2021/11/26 10:09:08;;;;;;;26.90;19.00;;;;;;;4.98;68.52;98634.41;10292630;28;20056;-63
2021/11/26 10:14:29;;;;;;;23.73;17.85;;;;;;;5.16;68.26;98626.75;10300490;28;20525;-63
2021/11/26 10:19:59;;;;;;;23.73;18.40;;;;;;;5.13;68.52;98624.38;10292682;28;20050;-63
2021/11/26 10:25:15;;;;;;;22.38;17.83;;;;;;;5.19;67.97;98600.13;10291815;28;20046;-63
2021/11/26 10:30:24;;;;;;;25.17;19.38;;;;;;;5.10;67.82;98598.25;10335181;28;20044;-64
2021/11/26 10:35:33;;;;;;;20.92;17.60;;;;;;;5.09;68.70;98592.16;10349339;28;20058;-63
2021/11/26 10:40:38;;;;;;;25.67;18.83;;;;;;;4.95;68.67;98564.31;10340033;28;20081;-63
2021/11/26 11:01:27;;;;;;;22.30;18.25;;;;;;;4.98;69.69;98525.47;10300736;28;20626;-62
2021/11/26 11:06:28;;;;;;;23.48;18.33;;;;;;;4.76;70.34;98508.84;10301795;28;20064;-64
2021/11/26 11:11:30;;;;;;;24.88;19.27;;;;;;;4.65;71.06;98490.44;10301020;28;20077;-63
2021/11/26 11:16:32;;;;;;;25.83;20.20;;;;;;;4.75;72.43;98486.06;10296799;28;20065;-63
2021/11/26 11:21:33;;;;;;;27.25;19.77;;;;;;;4.92;73.11;98485.47;10299458;28;20322;-62
2021/11/26 11:26:35;;;;;;;28.00;21.75;;;;;;;4.88;74.08;98462.13;10298985;28;20069;-62
2021/11/26 11:31:39;;;;;;;28.38;20.25;;;;;;;4.81;74.66;98467.09;10301160;28;20062;-61
2021/11/26 11:36:42;;;;;;;23.30;18.90;;;;;;;4.70;74.63;98448.69;10299429;28;20174;-64
2021/11/26 11:41:55;;;;;;;27.80;21.63;;;;;;;4.67;75.24;98446.34;10298869;28;20052;-61
2021/11/26 11:47:00;;;;;;;28.33;20.42;;;;;;;4.52;75.66;98422.09;10328997;28;20045;-61
2021/11/26 11:52:03;;;;;;;;;;;;;;;4.24;76.86;98403.38;10306686;28;20057;-61
2021/11/26 11:57:27;;;;;;;30.10;21.52;;;;;;;4.48;77.14;98432.09;10309298;28;19929;-62
2021/11/26 12:02:29;;;;;;;32.85;24.52;;;;;;;4.43;77.42;98419.31;10303203;28;20213;-62
2021/11/26 12:07:32;;;;;;;30.70;23.35;;;;;;;4.46;77.57;98418.22;10296736;28;20054;-61
2021/11/26 12:12:52;;;;;;;31.35;24.70;;;;;;;4.36;77.66;98410.25;10296448;28;20580;-61
2021/11/26 12:18:06;;;;;;;31.38;25.13;;;;;;;4.26;78.29;98396.16;10352445;28;20152;-60
2021/11/26 12:23:25;;;;;;;33.08;25.00;;;;;;;4.26;78.92;98396.16;10321959;28;20058;-60
2021/11/26 12:28:38;;;;;;;31.42;25.65;;;;;;;4.30;78.67;98381.78;10311277;28;20046;-61
2021/11/26 12:33:40;;;;;;;35.38;24.77;;;;;;;4.20;79.29;98363.31;10295917;28;20445;-61
2021/11/26 12:38:48;;;;;;;31.52;26.40;;;;;;;4.16;79.19;98361.88;10301539;28;20077;-62
2021/11/26 12:43:49;;;;;;;31.13;23.55;;;;;;;4.16;78.84;98332.06;10293829;28;20466;-61
2021/11/26 12:54:23;;;;;;;32.50;24.95;;;;;;;4.33;78.88;98330.66;10312385;28;20054;-61
2021/11/26 12:59:28;;;;;;;30.27;24.98;;;;;;;4.41;79.07;98320.28;10304305;28;20060;-62
2021/11/26 13:04:30;;;;;;;33.00;24.80;;;;;;;4.24;78.82;98308.56;10301378;28;20060;-61
2021/11/26 13:09:48;;;;;;;32.92;23.60;;;;;;;4.27;78.88;98304.84;10297717;28;20050;-62
2021/11/26 13:14:54;;;;;;;32.22;23.55;;;;;;;4.37;79.30;98287.28;10297982;28;20104;-61
2021/11/26 13:20:08;;;;;;;30.05;22.30;;;;;;;4.25;78.62;98268.91;10295240;28;20579;-61
2021/11/26 13:25:12;;;;;;;28.45;21.92;;;;;;;4.41;78.52;98275.50;10293334;28;20572;-61
2021/11/26 13:30:21;;;;;;;30.00;22.40;;;;;;;4.50;78.48;98271.22;10294099;28;21186;-61
2021/11/26 13:35:28;;;;;;;31.83;24.17;;;;;;;4.48;78.44;98255.56;10293793;28;20054;-61
2021/11/26 13:41:01;;;;;;;32.05;23.38;;;;;;;4.50;78.34;98242.25;10293874;28;20054;-61
2021/11/26 13:46:10;;;;;;;34.40;25.00;;;;;;;4.50;78.50;98224.63;10305614;28;20050;-62
2021/11/26 13:51:18;;;;;;;30.88;23.63;;;;;;;4.58;77.56;98222.16;10311484;28;20061;-61
2021/11/26 13:56:29;;;;;;;30.60;24.00;;;;;;;4.52;77.83;98213.94;10301852;28;20046;-62
2021/11/26 14:01:33;;;;;;;29.65;23.65;;;;;;;4.65;77.64;98195.25;10304378;28;20128;-62
2021/11/26 14:06:36;;;;;;;31.80;23.53;;;;;;;4.65;77.86;98201.34;10306539;28;20060;-62
2021/11/26 14:11:41;;;;;;;31.20;22.35;;;;;;;4.52;77.88;98199.00;10303307;28;20060;-63
2021/11/26 14:16:51;;;;;;;32.80;23.65;;;;;;;4.46;78.63;98204.81;10294761;28;20101;-62
2021/11/26 14:21:54;;;;;;;31.38;23.17;;;;;;;4.30;80.02;98196.59;10290017;28;20045;-62
2021/11/26 14:26:55;;;;;;;32.60;24.17;;;;;;;4.34;79.96;98187.41;10289352;28;20050;-62
2021/11/26 14:31:57;;;;;;;34.63;24.05;;;;;;;4.31;80.83;98177.16;10330749;28;20054;-62
2021/11/26 14:36:59;;;;;;;29.42;21.90;;;;;;;4.22;81.40;98179.63;10333239;28;20052;-61
2021/11/26 14:42:04;;;;;;;28.02;21.45;;;;;;;4.25;81.43;98171.47;10335818;28;20141;-62
2021/11/26 14:47:05;;;;;;;30.92;23.00;;;;;;;4.06;82.40;98168.78;10333119;28;20054;-62
2021/11/26 14:52:08;;;;;;;33.47;23.00;;;;;;;3.97;82.53;98154.59;10331163;28;20420;-61
2021/11/26 14:57:10;;;;;;;29.98;21.67;;;;;;;4.01;82.80;98161.28;10329634;28;20066;-62
2021/11/26 15:02:12;;;;;;;30.02;22.33;;;;;;;3.98;83.02;98156.28;10330641;28;20124;-62
2021/11/26 15:07:18;;;;;;;28.65;21.02;;;;;;;3.96;83.39;98146.84;10331124;28;20053;-63
2021/11/26 15:12:19;;;;;;;31.05;21.00;;;;;;;3.90;83.13;98142.94;10307278;28;20164;-62
2021/11/26 15:17:22;;;;;;;28.10;20.35;;;;;;;3.93;83.93;98126.06;10311864;28;20046;-63
2021/11/26 15:22:24;;;;;;;30.27;21.55;;;;;;;3.84;83.62;98112.75;10337393;28;20049;-64
2021/11/26 15:27:25;;;;;;;31.50;21.38;;;;;;;3.99;83.23;98128.16;10340664;28;20046;-63
2021/11/26 15:32:27;;;;;;;30.70;22.77;;;;;;;3.99;83.24;98120.25;10338582;28;20060;-61
2021/11/26 15:37:28;;;;;;;30.52;22.70;;;;;;;3.86;83.56;98105.53;10339394;28;20046;-63
2021/11/26 15:42:29;;;;;;;31.55;21.67;;;;;;;3.87;83.22;98090.56;10339531;28;20052;-61
2021/11/26 15:47:31;;;;;;;32.85;22.67;;;;;;;3.89;83.65;98094.72;10339487;28;20065;-62
2021/11/26 15:52:33;;;;;;;32.95;23.40;;;;;;;3.85;83.62;98093.31;10336917;28;20053;-62
2021/11/26 15:57:35;;;;;;;34.50;23.95;;;;;;;3.77;85.21;98080.03;10338714;28;20049;-63
2021/11/26 16:02:36;;;;;;;37.75;24.83;;;;;;;3.64;85.17;98058.38;10335657;28;20128;-61
2021/11/26 16:07:38;;;;;;;32.97;23.52;;;;;;;3.80;84.81;98053.44;10336633;28;20045;-62
2021/11/26 16:12:39;;;;;;;31.70;22.00;;;;;;;3.91;84.41;98051.66;10335502;28;20153;-62
2021/11/26 16:17:42;;;;;;;34.22;22.88;;;;;;;3.87;85.01;98069.50;10338161;28;20137;-61
2021/11/26 16:22:43;;;;;;;30.63;22.88;;;;;;;3.73;85.23;98044.41;10337941;28;20064;-62
2021/11/26 16:27:47;;;;;;;30.38;22.25;;;;;;;3.55;85.38;98007.38;10335568;28;20054;-61
2021/11/26 16:38:09;;;;;;;26.73;20.27;;;;;;;3.83;84.50;98029.47;10340844;28;20145;-60
2021/11/26 16:43:12;;;;;;;33.63;22.85;;;;;;;3.72;84.45;98011.16;10351733;28;20069;-62
2021/11/26 16:48:14;;;;;;;30.42;20.13;;;;;;;3.73;85.03;98015.47;10325391;28;20057;-61
2021/11/26 16:53:15;;;;;;;33.72;21.83;;;;;;;3.75;85.12;98002.16;10304190;28;20050;-64
2021/11/26 16:58:17;;;;;;;32.35;21.85;;;;;;;3.70;85.42;97994.69;10310831;28;20056;-64
2021/11/26 17:03:19;;;;;;;28.33;21.50;;;;;;;3.81;85.36;97997.19;10309169;28;20456;-64
2021/11/26 17:08:20;;;;;;;29.92;23.42;;;;;;;3.69;84.83;97979.84;10310772;28;20519;-64
2021/11/26 17:13:22;;;;;;;29.70;23.17;;;;;;;3.65;84.70;97966.16;10307676;28;21509;-64
2021/11/26 17:18:23;;;;;;;32.53;23.55;;;;;;;3.56;85.31;97960.84;10314132;28;20093;-65
2021/11/26 17:23:25;;;;;;;33.70;24.02;;;;;;;3.78;85.69;97965.88;10307561;28;20066;-64
2021/11/26 17:28:27;;;;;;;35.40;23.33;;;;;;;3.84;85.24;97948.72;10306407;28;20056;-64
2021/11/26 17:33:29;;;;;;;28.75;21.20;;;;;;;3.84;83.80;97948.72;10308103;28;20704;-64
2021/11/26 17:38:30;;;;;;;28.50;20.33;;;;;;;3.78;84.66;97929.03;10305608;28;20665;-64
2021/11/26 17:43:32;;;;;;;27.60;19.95;;;;;;;3.87;83.25;97938.75;10308230;28;20042;-63
2021/11/26 17:48:33;;;;;;;27.50;19.48;;;;;;;3.78;82.99;97918.50;10286830;28;20547;-63
2021/11/26 17:53:35;;;;;;;31.15;21.83;;;;;;;3.84;82.62;97932.91;10292700;28;20062;-63
2021/11/26 17:58:36;;;;;;;27.33;19.65;;;;;;;3.86;82.96;97905.50;10295240;28;20054;-63
2021/11/26 18:03:39;;;;;;;28.10;19.50;;;;;;;3.95;82.63;97897.72;10293309;28;20125;-63
2021/11/26 18:08:48;;;;;;;27.75;19.67;;;;;;;3.86;81.65;97881.81;10293689;28;20164;-64
2021/11/26 18:13:49;;;;;;;30.65;18.83;;;;;;;4.08;82.01;97882.47;10290886;28;20092;-64
2021/11/26 18:18:52;;;;;;;28.70;20.35;;;;;;;3.97;81.86;97877.38;10305533;28;20137;-63
2021/11/26 18:23:54;;;;;;;30.00;21.23;;;;;;;3.83;80.85;97855.78;10288029;28;20125;-63
2021/11/26 18:28:55;;;;;;;28.20;18.50;;;;;;;3.62;81.46;97865.59;10291997;28;20296;-65
2021/11/26 18:33:56;;;;;;;30.70;21.48;;;;;;;3.64;81.66;97871.56;10293060;28;20050;-63
2021/11/26 18:39:01;;;;;;;27.52;18.33;;;;;;;3.61;81.83;97854.25;10290976;28;20056;-67
2021/11/26 18:44:05;;;;;;;26.92;19.92;;;;;;;3.73;81.63;97841.78;10287742;28;20064;-64
2021/11/26 18:49:06;;;;;;;25.83;18.23;;;;;;;3.73;81.65;97839.16;10306552;28;20046;-64
2021/11/26 18:54:08;;;;;;;28.02;21.23;;;;;;;3.68;81.48;97821.16;10311908;28;20423;-64
2021/11/26 18:59:09;;;;;;;28.13;22.40;;;;;;;3.77;81.51;97810.75;10313898;28;20058;-64
2021/11/26 19:04:11;;;;;;;21.70;16.65;;;;;;;3.76;80.80;97809.94;10306657;28;20039;-64
2021/11/26 19:09:14;;;;;;;29.85;26.10;;;;;;;3.81;80.88;97791.91;10305246;28;20158;-63
2021/11/26 19:14:15;;;;;;;42.50;34.05;;;;;;;3.85;80.66;97785.41;10336796;28;20571;-65
2021/11/26 19:19:16;;;;;;;41.15;31.27;;;;;;;3.87;79.85;97780.84;10337132;28;20060;-64
2021/11/26 19:24:18;;;;;;;23.00;15.93;;;;;;;3.85;80.14;97737.19;10335818;28;20052;-64
2021/11/26 19:29:20;;;;;;;31.77;27.23;;;;;;;3.93;80.27;97752.28;10332985;28;20053;-62
2021/11/26 19:34:21;;;;;;;27.67;19.73;;;;;;;3.97;79.73;97732.59;10337435;28;20054;-61
2021/11/26 19:39:23;;;;;;;32.08;28.10;;;;;;;3.94;79.77;97722.34;10336622;28;20056;-62
2021/11/26 19:44:24;;;;;;;29.38;23.92;;;;;;;3.83;80.02;97705.75;10335604;28;20054;-63
2021/11/26 19:49:26;;;;;;;31.98;24.80;;;;;;;3.89;80.02;97699.09;10336575;28;20138;-63
2021/11/26 19:54:27;;;;;;;36.05;28.33;;;;;;;4.09;79.69;97694.59;10333788;28;20076;-64
2021/11/26 19:59:29;;;;;;;79.43;68.45;;;;;;;3.91;79.69;97673.47;10337914;28;20115;-63
2021/11/26 20:04:31;;;;;;;25.98;21.33;;;;;;;3.98;79.59;97687.72;10339652;28;20182;-63
2021/11/26 20:09:34;;;;;;;23.70;15.80;;;;;;;3.90;79.93;97663.91;10338006;28;20049;-61
2021/11/26 20:14:36;;;;;;;22.42;18.70;;;;;;;3.89;79.16;97662.25;10335045;28;20505;-63
2021/11/26 20:19:38;;;;;;;22.05;16.08;;;;;;;3.87;79.92;97666.81;10338724;28;20571;-61
2021/11/26 20:24:40;;;;;;;24.15;19.15;;;;;;;3.83;79.71;97668.91;10335643;28;20144;-62
2021/11/26 20:29:41;;;;;;;25.23;20.77;;;;;;;3.84;79.73;97657.44;10335936;28;20491;-62
2021/11/26 20:34:45;;;;;;;22.58;18.45;;;;;;;3.81;80.52;97662.13;10336682;28;20466;-61
2021/11/26 20:39:46;;;;;;;23.00;16.27;;;;;;;3.76;80.19;97656.50;10335239;28;20086;-63
2021/11/26 20:44:47;;;;;;;18.55;14.05;;;;;;;3.68;80.21;97649.31;10335082;28;20053;-64
2021/11/26 20:49:49;;;;;;;17.92;14.27;;;;;;;3.72;80.16;97645.41;10334909;28;20099;-62
2021/11/26 20:54:50;;;;;;;19.42;12.48;;;;;;;3.84;79.85;97639.00;10334922;28;20459;-63
2021/11/26 20:59:53;;;;;;;20.05;13.68;;;;;;;3.76;80.00;97631.00;10332436;28;20139;-62
2021/11/26 21:04:55;;;;;;;20.58;16.88;;;;;;;3.81;80.87;97620.84;10333515;28;20050;-63
2021/11/26 21:09:56;;;;;;;18.20;13.73;;;;;;;3.79;80.85;97609.66;10335123;28;20575;-63
2021/11/26 21:14:58;;;;;;;16.48;12.80;;;;;;;3.70;81.08;97600.00;10330907;28;20100;-63
2021/11/26 21:19:59;;;;;;;16.88;13.07;;;;;;;3.70;81.78;97600.00;10332463;28;20077;-63
2021/11/26 21:25:04;;;;;;;19.92;15.10;;;;;;;3.61;81.86;97559.59;10332197;28;20145;-63
2021/11/26 21:30:08;;;;;;;16.80;13.90;;;;;;;3.74;81.55;97566.31;10295378;28;20680;-63
2021/11/26 21:35:11;;;;;;;18.88;13.23;;;;;;;3.63;81.17;97562.09;10295033;28;20058;-63
2021/11/26 21:40:13;;;;;;;15.70;11.38;;;;;;;3.64;81.00;97547.97;10293688;28;20182;-63
2021/11/26 21:45:18;;;;;;;19.55;13.25;;;;;;;3.80;81.31;97558.69;10291242;28;20546;-64
2021/11/26 21:50:21;;;;;;;17.17;12.73;;;;;;;3.82;81.37;97558.53;10290743;28;20129;-63
2021/11/26 21:55:23;;;;;;;15.23;12.25;;;;;;;3.60;81.87;97551.84;10291977;28;20161;-62
2021/11/26 22:00:27;;;;;;;16.67;11.43;;;;;;;3.53;82.35;97547.19;10291530;28;20138;-63
2021/11/26 22:05:29;;;;;;;13.95;10.65;;;;;;;3.46;82.06;97540.03;10292727;28;20127;-62
2021/11/26 22:10:31;;;;;;;18.17;11.43;;;;;;;3.43;83.22;97524.53;10289629;28;20050;-64
2021/11/26 22:15:34;;;;;;;20.73;16.17;;;;;;;3.36;83.48;97525.13;10291456;28;20433;-63
2021/11/26 22:20:37;;;;;;;18.75;14.45;;;;;;;3.39;83.56;97508.19;10299341;28;20049;-63
2021/11/26 22:25:38;;;;;;;17.58;13.15;;;;;;;3.36;84.40;97519.00;10305907;28;20522;-64
2021/11/26 22:30:41;;;;;;;14.52;11.82;;;;;;;3.36;84.38;97513.75;10308196;28;20240;-64
2021/11/26 22:35:42;;;;;;;19.95;15.43;;;;;;;3.44;83.85;97516.50;10306130;28;20050;-63
2021/11/26 22:40:45;;;;;;;13.55;9.88;;;;;;;3.38;84.11;97501.31;10315984;28;20085;-63
2021/11/26 22:45:49;;;;;;;19.45;13.07;;;;;;;3.38;84.16;97493.41;10350870;28;20060;-63
2021/11/26 22:50:51;;;;;;;12.23;10.82;;;;;;;3.52;84.05;97487.66;10350002;28;20061;-63
2021/11/26 22:55:53;;;;;;;19.27;14.40;;;;;;;3.53;83.78;97483.25;10348156;28;20061;-63
2021/11/26 23:00:57;;;;;;;13.18;10.90;;;;;;;3.49;83.67;97479.25;10350722;28;20756;-62
2021/11/26 23:06:00;;;;;;;14.00;10.88;;;;;;;3.48;83.94;97465.28;10311999;28;20051;-65
2021/11/26 23:11:04;;;;;;;14.80;13.02;;;;;;;3.49;84.43;97474.78;10296620;28;20054;-64
2021/11/26 23:16:10;;;;;;;11.63;9.67;;;;;;;3.54;83.50;97474.34;10310032;28;20308;-64
2021/11/26 23:21:12;;;;;;;28.35;25.38;;;;;;;3.52;84.29;97461.34;10314768;28;20532;-65
2021/11/26 23:26:16;;;;;;;12.57;9.68;;;;;;;3.44;83.91;97440.22;10311485;28;20038;-65
2021/11/26 23:31:19;;;;;;;16.08;13.23;;;;;;;3.61;84.04;97449.13;10298059;28;20046;-64
2021/11/26 23:36:22;;;;;;;10.23;8.20;;;;;;;3.51;84.14;97449.19;10297858;28;20093;-64
2021/11/26 23:41:24;;;;;;;12.60;9.35;;;;;;;3.48;84.31;97448.63;10305674;28;20074;-64
2021/11/26 23:46:26;;;;;;;12.32;8.68;;;;;;;3.51;84.70;97430.78;10307064;28;20244;-64